createdAt,value
2018-06-02T00:01:31.122Z,69.74
2018-06-02T00:04:01.462Z,69.91
2018-06-02T00:06:33.173Z,70.68
2018-06-02T00:09:22.736Z,70.74
2018-06-02T00:14:42.429Z,70.86
2018-06-02T00:17:14.660Z,70.77
2018-06-02T00:19:45.231Z,71.28
2018-06-02T00:22:15.750Z,71.51
2018-06-02T00:24:46.556Z,71.53
2018-06-02T00:27:19.854Z,70.97
2018-06-02T00:29:57.326Z,70.80
2018-06-02T00:32:29.103Z,71.11
2018-06-02T00:35:00.437Z,70.83
2018-06-02T00:37:42.092Z,70.34
2018-06-02T00:40:12.996Z,70.24
2018-06-02T00:42:43.771Z,70.07
2018-06-02T00:47:54.716Z,70.25
2018-06-02T00:50:27.835Z,70.01
2018-06-02T00:52:58.293Z,69.55
2018-06-02T00:55:28.860Z,69.19
2018-06-02T00:58:03.362Z,68.92
2018-06-02T01:00:36.488Z,69.05
2018-06-02T01:03:07.884Z,69.02
2018-06-02T01:05:38.385Z,68.95
2018-06-02T01:08:17.443Z,68.66
2018-06-02T01:10:48.260Z,67.75
2018-06-02T01:13:18.783Z,68.00
2018-06-02T01:15:49.645Z,67.72
2018-06-02T01:18:20.057Z,68.22
2018-06-02T01:20:50.769Z,68.13
2018-06-02T01:23:21.218Z,67.57
2018-06-02T01:25:51.945Z,68.36
2018-06-02T01:28:22.458Z,69.30
2018-06-02T01:30:53.139Z,69.63
2018-06-02T01:33:24.037Z,69.71
2018-06-02T01:35:54.870Z,69.95
2018-06-02T01:38:25.231Z,69.94
2018-06-02T01:40:56.290Z,70.08
2018-06-02T01:43:27.197Z,70.23
2018-06-02T01:45:58.202Z,70.05
2018-06-02T01:48:29.271Z,70.21
2018-06-02T01:50:59.957Z,70.04
2018-06-02T01:53:30.881Z,70.02
2018-06-02T01:56:01.325Z,70.33
2018-06-02T01:58:31.975Z,69.97
2018-06-02T02:01:03.078Z,69.31
2018-06-02T02:03:33.493Z,68.66
2018-06-02T02:06:04.504Z,68.52
2018-06-02T02:08:35.786Z,68.62
2018-06-02T02:11:06.717Z,68.55
2018-06-02T02:13:38.646Z,68.54
2018-06-02T02:16:10.415Z,68.66
2018-06-02T02:18:42.030Z,68.68
2018-06-02T02:21:13.177Z,68.54
2018-06-02T02:23:43.596Z,68.67
2018-06-02T02:26:22.821Z,68.70
2018-06-02T02:28:53.171Z,69.26
2018-06-02T02:31:24.002Z,69.35
2018-06-02T02:33:54.629Z,69.49
2018-06-02T02:36:25.157Z,69.73
2018-06-02T02:38:55.512Z,69.27
2018-06-02T02:41:26.266Z,69.07
2018-06-02T02:43:56.710Z,68.68
2018-06-02T02:46:28.172Z,68.43
2018-06-02T02:48:58.884Z,68.33
2018-06-02T02:51:29.724Z,68.39
2018-06-02T02:54:00.291Z,68.49
2018-06-02T02:56:31.477Z,68.43
2018-06-02T02:59:02.126Z,68.23
2018-06-02T03:01:33.698Z,68.37
2018-06-02T03:04:05.022Z,68.90
2018-06-02T03:06:36.878Z,68.79
2018-06-02T03:09:08.656Z,68.77
2018-06-02T03:11:39.451Z,68.67
2018-06-02T03:14:10.802Z,68.20
2018-06-02T03:16:42.449Z,67.63
2018-06-02T03:19:13.219Z,67.57
2018-06-02T03:21:44.698Z,67.40
2018-06-02T03:24:15.949Z,67.60
2018-06-02T03:26:47.847Z,68.07
2018-06-02T03:29:18.825Z,67.74
2018-06-02T03:31:49.970Z,67.97
2018-06-02T03:34:20.770Z,67.49
2018-06-02T03:36:51.563Z,67.32
2018-06-02T03:39:22.732Z,67.21
2018-06-02T03:41:53.159Z,67.51
2018-06-02T03:44:23.681Z,67.86
2018-06-02T03:46:54.209Z,68.05
2018-06-02T03:49:24.758Z,68.00
2018-06-02T03:51:55.551Z,67.69
2018-06-02T03:54:26.097Z,67.57
2018-06-02T03:56:56.545Z,67.43
2018-06-02T03:59:27.283Z,67.18
2018-06-02T04:01:58.056Z,66.81
2018-06-02T04:04:28.450Z,66.85
2018-06-02T04:06:59.971Z,67.06
2018-06-02T04:09:33.810Z,66.99
2018-06-02T04:12:06.022Z,67.00
2018-06-02T04:14:36.809Z,67.70
2018-06-02T04:17:07.434Z,67.40
2018-06-02T04:19:38.978Z,67.35
2018-06-02T04:22:10.130Z,67.19
2018-06-02T04:24:46.377Z,67.35
2018-06-02T04:27:20.216Z,67.43
2018-06-02T04:29:52.634Z,67.40
2018-06-02T04:32:23.382Z,67.52
2018-06-02T04:34:55.047Z,67.44
2018-06-02T04:37:25.842Z,67.53
2018-06-02T04:39:56.189Z,67.19
2018-06-02T04:42:26.983Z,67.03
2018-06-02T04:44:57.472Z,67.38
2018-06-02T04:47:28.079Z,67.17
2018-06-02T04:49:58.868Z,67.09
2018-06-02T04:52:29.535Z,67.14
2018-06-02T04:55:02.140Z,66.92
2018-06-02T04:57:33.073Z,67.05
2018-06-02T05:00:05.141Z,66.79
2018-06-02T05:02:36.048Z,66.87
2018-06-02T05:05:06.959Z,66.72
2018-06-02T05:07:37.511Z,66.79
2018-06-02T05:10:07.964Z,66.73
2018-06-02T05:12:40.447Z,66.24
2018-06-02T05:15:17.174Z,66.19
2018-06-02T05:17:48.069Z,66.69
2018-06-02T05:20:19.771Z,66.11
2018-06-02T05:23:05.525Z,66.08
2018-06-02T05:25:36.554Z,65.88
2018-06-02T05:28:07.166Z,65.72
2018-06-02T05:30:39.799Z,66.04
2018-06-02T05:33:12.242Z,66.29
2018-06-02T05:35:45.397Z,65.93
2018-06-02T05:38:16.672Z,66.29
2018-06-02T05:40:58.489Z,66.62
2018-06-02T05:43:30.411Z,67.08
2018-06-02T05:46:01.321Z,66.86
2018-06-02T05:48:36.799Z,67.24
2018-06-02T05:51:07.999Z,67.41
2018-06-02T05:53:39.777Z,66.86
2018-06-02T05:56:12.161Z,66.94
2018-06-02T05:58:43.771Z,67.13
2018-06-02T06:01:17.700Z,67.42
2018-06-02T06:03:49.092Z,67.57
2018-06-02T06:06:30.868Z,67.50
2018-06-02T06:09:02.283Z,67.08
2018-06-02T06:11:35.993Z,66.95
2018-06-02T06:14:06.916Z,66.97
2018-06-02T06:16:37.654Z,66.91
2018-06-02T06:19:08.488Z,67.17
2018-06-02T06:21:40.673Z,67.52
2018-06-02T06:24:11.754Z,67.67
2018-06-02T06:26:42.770Z,67.96
2018-06-02T06:32:01.814Z,67.59
2018-06-02T06:34:34.178Z,67.15
2018-06-02T06:37:07.013Z,67.22
2018-06-02T06:39:39.395Z,67.26
2018-06-02T06:42:10.433Z,67.53
2018-06-02T06:44:42.217Z,67.43
2018-06-02T06:47:13.460Z,67.10
2018-06-02T06:49:44.295Z,66.81
2018-06-02T06:52:19.846Z,66.64
2018-06-02T06:55:04.124Z,66.15
2018-06-02T07:00:21.149Z,65.80
2018-06-02T07:02:55.238Z,64.87
2018-06-02T07:05:26.892Z,64.85
2018-06-02T07:10:39.241Z,64.35
2018-06-02T07:13:10.116Z,63.83
2018-06-02T07:15:45.492Z,63.95
2018-06-02T07:18:23.296Z,63.84
2018-06-02T07:20:57.275Z,63.73
2018-06-02T07:23:29.049Z,63.79
2018-06-02T07:26:01.164Z,63.24
2018-06-02T07:28:33.787Z,63.45
2018-06-02T07:31:06.211Z,62.82
2018-06-02T07:33:45.713Z,62.50
2018-06-02T07:36:16.365Z,62.04
2018-06-02T07:38:49.243Z,61.96
2018-06-02T07:46:42.976Z,62.14
2018-06-02T07:49:14.689Z,62.74
2018-06-02T07:51:46.485Z,62.81
2018-06-02T07:54:17.550Z,62.82
2018-06-02T07:56:48.802Z,63.36
2018-06-02T07:59:27.952Z,62.86
2018-06-02T08:02:00.448Z,62.81
2018-06-02T08:04:34.949Z,62.31
2018-06-02T08:07:20.547Z,62.10
2018-06-02T08:10:05.397Z,62.14
2018-06-02T08:12:46.733Z,61.82
2018-06-02T08:15:20.107Z,61.52
2018-06-02T08:17:53.759Z,62.04
2018-06-02T08:20:32.903Z,61.88
2018-06-02T08:25:57.160Z,60.30
2018-06-02T08:28:30.732Z,60.29
2018-06-02T08:31:33.169Z,60.18
2018-06-02T08:36:30.340Z,58.88
2018-06-02T08:39:02.380Z,58.93
2018-06-02T08:41:35.474Z,58.80
2018-06-02T08:44:07.991Z,58.41
2018-06-02T08:46:39.949Z,58.33
2018-06-02T08:49:10.885Z,58.75
2018-06-02T08:54:17.158Z,59.14
2018-06-02T08:56:51.127Z,59.46
2018-06-02T08:59:24.435Z,59.78
2018-06-02T09:01:58.015Z,60.95
2018-06-02T09:04:50.472Z,60.44
2018-06-02T09:07:28.404Z,60.25
2018-06-02T09:10:02.560Z,59.77
2018-06-02T09:12:33.450Z,58.78
2018-06-02T09:15:07.505Z,57.87
2018-06-02T09:17:46.708Z,56.94
2018-06-02T09:20:23.199Z,56.26
2018-06-02T09:22:56.047Z,55.57
2018-06-02T09:25:30.358Z,55.08
2018-06-02T09:28:01.998Z,55.15
2018-06-02T09:30:41.495Z,53.88
2018-06-02T09:33:23.660Z,54.01
2018-06-02T09:35:56.118Z,53.98
2018-06-02T09:41:17.054Z,52.01
2018-06-02T09:43:50.233Z,52.98
2018-06-02T09:46:36.667Z,52.40
2018-06-02T09:49:11.566Z,52.40
2018-06-02T09:51:49.758Z,51.78
2018-06-02T09:54:43.866Z,50.98
2018-06-02T09:57:20.990Z,50.21
2018-06-02T09:59:54.173Z,51.71
2018-06-02T10:02:25.621Z,52.32
2018-06-02T10:04:59.122Z,52.93
2018-06-02T10:07:41.659Z,53.04
2018-06-02T10:10:12.902Z,52.52
2018-06-02T10:12:45.328Z,52.35
2018-06-02T10:15:19.573Z,51.56
2018-06-02T10:17:51.103Z,51.20
2018-06-02T10:20:22.683Z,51.31
2018-06-02T10:22:54.210Z,50.97
2018-06-02T10:25:25.847Z,51.31
2018-06-02T10:27:56.349Z,51.29
2018-06-02T10:30:27.928Z,50.91
2018-06-02T10:32:59.922Z,50.66
2018-06-02T10:35:31.633Z,50.12
2018-06-02T10:38:05.659Z,48.83
2018-06-02T10:40:39.965Z,47.60
2018-06-02T10:43:11.934Z,46.06
2018-06-02T10:45:45.862Z,46.43
2018-06-02T10:48:16.554Z,45.61
2018-06-02T10:50:48.553Z,45.82
2018-06-02T10:53:20.426Z,45.33
2018-06-02T10:55:52.726Z,44.14
2018-06-02T10:58:29.542Z,45.33
2018-06-02T11:01:00.691Z,46.43
2018-06-02T11:03:32.344Z,47.06
2018-06-02T11:06:03.989Z,46.89
2018-06-02T11:08:36.530Z,46.17
2018-06-02T11:11:10.479Z,46.13
2018-06-02T11:16:44.716Z,44.61
2018-06-02T11:19:16.726Z,44.63
2018-06-02T11:21:48.351Z,45.08
2018-06-02T11:24:25.953Z,45.28
2018-06-02T11:26:57.172Z,45.88
2018-06-02T11:29:41.890Z,46.50
2018-06-02T11:32:28.139Z,45.25
2018-06-02T11:35:00.538Z,45.15
2018-06-02T11:37:31.364Z,43.85
2018-06-02T11:40:03.116Z,43.49
2018-06-02T11:42:34.503Z,43.41
2018-06-02T11:45:13.173Z,43.04
2018-06-02T11:47:45.908Z,41.84
2018-06-02T11:50:19.126Z,41.29
2018-06-02T11:52:50.813Z,40.58
2018-06-02T11:55:26.973Z,40.04
2018-06-02T11:58:12.953Z,39.34
2018-06-02T12:00:49.658Z,39.39
2018-06-02T12:03:25.233Z,36.23
2018-06-02T12:05:56.222Z,36.27
2018-06-02T12:08:28.687Z,35.00
2018-06-02T12:10:59.277Z,34.30
2018-06-02T12:13:48.496Z,34.58
2018-06-02T12:16:32.018Z,33.34
2018-06-02T12:19:03.491Z,34.09
2018-06-02T12:21:33.845Z,33.52
2018-06-02T12:24:05.993Z,34.05
2018-06-02T12:26:37.107Z,34.19
2018-06-02T12:29:08.793Z,35.62
2018-06-02T12:31:44.750Z,36.25
2018-06-02T12:34:17.669Z,36.98
2018-06-02T12:36:50.321Z,38.04
2018-06-02T12:39:22.622Z,38.93
2018-06-02T12:44:37.851Z,38.65
2018-06-02T12:47:09.144Z,38.65
2018-06-02T12:49:42.359Z,39.57
2018-06-02T12:52:13.478Z,40.63
2018-06-02T12:54:46.171Z,40.71
2018-06-02T12:57:20.330Z,40.71
2018-06-02T12:59:53.864Z,40.65
2018-06-02T13:02:34.411Z,40.70
2018-06-02T13:05:09.187Z,40.89
2018-06-02T13:07:41.694Z,39.70
2018-06-02T13:10:17.985Z,39.83
2018-06-02T13:12:49.107Z,39.42
2018-06-02T13:15:23.600Z,39.45
2018-06-02T13:17:54.361Z,40.03
2018-06-02T13:22:56.933Z,40.04
2018-06-02T13:25:29.570Z,40.41
2018-06-02T13:28:06.344Z,40.90
2018-06-02T13:30:53.646Z,40.97
2018-06-02T13:33:25.133Z,41.53
2018-06-02T13:35:56.361Z,41.77
2018-06-02T13:38:28.703Z,41.95
2018-06-02T13:41:02.100Z,41.11
2018-06-02T13:43:34.863Z,41.01
2018-06-02T13:46:06.269Z,40.88
2018-06-02T13:48:37.538Z,40.19
2018-06-02T13:51:14.902Z,40.51
2018-06-02T13:53:46.394Z,40.22
2018-06-02T13:56:24.810Z,40.56
2018-06-02T13:59:26.061Z,41.25
2018-06-02T14:02:17.021Z,41.85
2018-06-02T14:04:58.995Z,41.76
2018-06-02T14:07:40.018Z,41.02
2018-06-02T14:10:34.572Z,40.16
2018-06-02T14:13:11.196Z,39.60
2018-06-02T14:15:52.639Z,38.40
2018-06-02T14:18:31.705Z,39.03
2018-06-02T14:21:20.191Z,39.76
2018-06-02T14:24:20.820Z,39.18
2018-06-02T14:26:59.044Z,38.77
2018-06-02T14:29:33.438Z,37.97
2018-06-02T14:32:13.308Z,37.93
2018-06-02T14:34:59.152Z,39.33
2018-06-02T14:37:35.165Z,39.76
2018-06-02T14:40:15.397Z,40.17
2018-06-02T14:42:48.831Z,40.12
2018-06-02T14:45:23.974Z,40.11
2018-06-02T14:47:58.444Z,40.54
2018-06-02T14:50:41.015Z,40.52
2018-06-02T14:53:20.064Z,40.97
2018-06-02T14:55:57.527Z,40.45
2018-06-02T14:58:32.642Z,40.06
2018-06-02T15:01:15.473Z,40.06
2018-06-02T15:03:56.166Z,40.66
2018-06-02T15:06:29.866Z,41.37
2018-06-02T15:09:06.951Z,41.56
2018-06-02T15:11:42.845Z,41.79
2018-06-02T15:17:42.236Z,42.66
2018-06-02T15:20:25.380Z,42.86
2018-06-02T15:23:01.300Z,42.64
2018-06-02T15:25:36.790Z,42.71
2018-06-02T15:28:13.474Z,42.42
2018-06-02T15:30:46.816Z,43.83
2018-06-02T15:33:24.884Z,44.24
2018-06-02T15:35:56.269Z,44.80
2018-06-02T15:38:32.769Z,44.84
2018-06-02T15:41:07.067Z,44.90
2018-06-02T15:43:37.694Z,45.04
2018-06-02T15:46:12.355Z,44.86
2018-06-02T15:48:55.496Z,44.37
2018-06-02T15:51:35.892Z,43.79
2018-06-02T15:54:08.269Z,43.65
2018-06-02T15:56:41.177Z,43.22
2018-06-02T15:59:16.538Z,43.55
2018-06-02T16:01:59.828Z,43.96
2018-06-02T16:04:51.329Z,44.11
2018-06-02T16:07:25.468Z,43.86
2018-06-02T16:09:57.782Z,43.19
2018-06-02T16:12:32.525Z,43.25
2018-06-02T16:15:06.289Z,43.34
2018-06-02T16:17:39.992Z,44.16
2018-06-02T16:20:11.279Z,45.31
2018-06-02T16:22:41.670Z,45.60
2018-06-02T16:25:17.120Z,46.57
2018-06-02T16:28:15.797Z,47.39
2018-06-02T16:30:52.217Z,46.49
2018-06-02T16:33:27.401Z,46.25
2018-06-02T16:36:03.667Z,46.24
2018-06-02T16:38:36.652Z,46.50
2018-06-02T16:41:11.744Z,45.93
2018-06-02T16:43:44.514Z,45.65
2018-06-02T16:46:17.486Z,45.07
2018-06-02T16:48:53.618Z,45.06
2018-06-02T16:51:28.657Z,44.87
2018-06-02T16:54:01.742Z,44.64
2018-06-02T16:56:48.654Z,44.18
2018-06-02T16:59:35.631Z,44.35
2018-06-02T17:02:09.500Z,44.47
2018-06-02T17:04:41.172Z,44.85
2018-06-02T17:07:12.787Z,44.88
2018-06-02T17:09:44.307Z,45.14
2018-06-02T17:12:19.817Z,44.93
2018-06-02T17:15:03.265Z,44.91
2018-06-02T17:17:39.228Z,44.98
2018-06-02T17:20:18.191Z,45.20
2018-06-02T17:22:58.563Z,45.22
2018-06-02T17:25:32.555Z,45.22
2018-06-02T17:28:07.126Z,44.96
2018-06-02T17:30:41.837Z,45.13
2018-06-02T17:33:18.921Z,45.30
2018-06-02T17:35:53.567Z,45.31
2018-06-02T17:38:24.495Z,46.01
2018-06-02T17:40:57.540Z,46.40
2018-06-02T17:43:29.465Z,46.38
2018-06-02T17:46:14.024Z,46.05
2018-06-02T17:48:47.568Z,46.35
2018-06-02T17:51:19.121Z,46.92
2018-06-02T17:53:50.269Z,47.29
2018-06-02T17:56:40.948Z,47.50
2018-06-02T17:59:16.375Z,47.70
2018-06-02T18:01:50.965Z,47.89
2018-06-02T18:04:21.606Z,47.92
2018-06-02T18:07:09.780Z,47.53
2018-06-02T18:09:41.158Z,48.00
2018-06-02T18:12:12.394Z,48.17
2018-06-02T18:15:29.773Z,48.12
2018-06-02T18:18:02.163Z,49.01
2018-06-02T18:20:49.964Z,49.10
2018-06-02T18:23:37.028Z,48.75
2018-06-02T18:26:13.320Z,48.75
2018-06-02T18:28:47.330Z,48.91
2018-06-02T18:31:22.793Z,48.64
2018-06-02T18:33:56.737Z,48.76
2018-06-02T18:36:33.081Z,48.89
2018-06-02T18:39:12.385Z,49.70
2018-06-02T18:42:05.650Z,49.72
2018-06-02T18:44:56.690Z,49.91
2018-06-02T18:47:29.750Z,50.25
2018-06-02T18:50:13.524Z,50.17
2018-06-02T18:52:45.319Z,50.13
2018-06-02T18:55:33.372Z,50.60
2018-06-02T18:58:06.817Z,49.92
2018-06-02T19:00:50.643Z,50.04
2018-06-02T19:03:38.490Z,50.05
2018-06-02T19:06:13.040Z,50.55
2018-06-02T19:08:48.644Z,50.78
2018-06-02T19:11:25.666Z,51.05
2018-06-02T19:13:59.244Z,51.09
2018-06-02T19:16:41.726Z,51.10
2018-06-02T19:19:17.016Z,51.11
2018-06-02T19:21:49.122Z,51.73
2018-06-02T19:24:27.648Z,52.28
2018-06-02T19:27:01.860Z,52.09
2018-06-02T19:29:34.186Z,52.19
2018-06-02T19:32:13.607Z,51.86
2018-06-02T19:34:46.555Z,52.16
2018-06-02T19:37:22.345Z,52.29
2018-06-02T19:39:57.580Z,52.45
2018-06-02T19:42:31.078Z,53.20
2018-06-02T19:45:47.356Z,53.10
2018-06-02T19:48:25.716Z,52.96
2018-06-02T19:51:02.155Z,53.29
2018-06-02T19:53:42.339Z,53.03
2018-06-02T19:56:16.104Z,53.35
2018-06-02T19:58:54.396Z,53.28
2018-06-02T20:01:29.064Z,53.16
2018-06-02T20:06:48.693Z,53.15
2018-06-02T20:09:23.662Z,53.51
2018-06-02T20:12:08.128Z,53.35
2018-06-02T20:14:40.960Z,53.25
2018-06-02T20:17:18.422Z,53.36
2018-06-02T20:20:05.794Z,53.58
2018-06-02T20:22:46.661Z,53.52
2018-06-02T20:25:28.221Z,53.98
2018-06-02T20:28:26.267Z,53.58
2018-06-02T20:31:52.201Z,53.31
2018-06-02T20:34:29.868Z,53.49
2018-06-02T20:37:10.829Z,53.59
2018-06-02T20:50:04.559Z,54.28
2018-06-02T20:52:41.003Z,54.15
2018-06-02T20:55:13.906Z,54.52
2018-06-02T20:57:58.131Z,54.18
2018-06-02T21:00:46.814Z,54.15
2018-06-02T21:03:30.729Z,53.99
2018-06-02T21:06:07.001Z,53.80
2018-06-02T21:08:39.915Z,53.60
2018-06-02T21:11:39.053Z,53.66
2018-06-02T21:14:15.163Z,53.52
2018-06-02T21:16:47.073Z,53.71
2018-06-02T21:19:20.658Z,54.01
2018-06-02T21:22:11.088Z,55.05
2018-06-02T21:24:53.118Z,55.28
2018-06-02T21:27:54.078Z,55.03
2018-06-02T21:30:42.933Z,55.42
2018-06-02T21:33:29.226Z,55.83
2018-06-02T21:36:11.675Z,55.70
2018-06-02T21:38:44.531Z,55.34
2018-06-02T21:41:17.268Z,55.60
2018-06-02T21:43:55.918Z,55.62
2018-06-02T21:46:34.417Z,55.92
2018-06-02T21:49:13.363Z,56.14
2018-06-02T21:52:05.545Z,56.34
2018-06-02T21:54:51.293Z,56.16
2018-06-02T21:57:22.243Z,56.31
2018-06-02T22:00:09.169Z,55.99
2018-06-02T22:02:46.779Z,55.79
2018-06-02T22:05:20.364Z,56.02
2018-06-02T22:07:55.750Z,55.96
2018-06-02T22:10:33.666Z,56.50
2018-06-02T22:13:13.582Z,56.73
2018-06-02T22:15:45.926Z,57.36
2018-06-02T22:18:21.194Z,57.44
2018-06-02T22:21:18.964Z,56.89
2018-06-02T22:23:57.721Z,56.62
2018-06-02T22:26:37.668Z,56.65
2018-06-02T22:29:21.366Z,56.80
2018-06-02T22:31:52.574Z,56.43
2018-06-02T22:34:36.248Z,56.92
2018-06-02T22:37:13.045Z,56.96
2018-06-02T22:39:51.883Z,57.48
2018-06-02T22:42:23.457Z,57.68
2018-06-02T22:44:56.530Z,57.73
2018-06-02T22:47:35.820Z,57.92
2018-06-02T22:50:11.584Z,57.67
2018-06-02T22:52:51.636Z,57.19
2018-06-02T22:55:23.992Z,57.42
2018-06-02T22:57:57.737Z,57.61
2018-06-02T23:00:35.685Z,58.05
2018-06-02T23:06:19.095Z,58.55
2018-06-02T23:08:58.106Z,57.99
2018-06-02T23:11:33.185Z,57.52
2018-06-02T23:14:17.323Z,57.49
2018-06-02T23:17:03.014Z,57.07
2018-06-02T23:19:56.195Z,57.67
2018-06-02T23:22:40.135Z,57.89
2018-06-02T23:25:11.553Z,57.55
2018-06-02T23:27:55.977Z,57.58
2018-06-02T23:30:30.388Z,57.74
2018-06-02T23:38:41.694Z,57.70
2018-06-02T23:41:12.786Z,58.08
2018-06-02T23:43:43.305Z,58.17
2018-06-02T23:46:15.107Z,58.22
2018-06-02T23:48:46.349Z,58.39
2018-06-02T23:51:19.207Z,58.17
2018-06-02T23:53:50.745Z,58.21
2018-06-02T23:56:21.471Z,58.06
2018-06-02T23:58:51.943Z,58.06
